Time;durP1;ratioP1;P1;durP2;ratioP2;P2;SDS_P1;SDS_P2;PMS_P1;PMS_P2;Temp;Humidity;BMP_temperature;BMP_pressure;BME280_temperature;BME280_humidity;BME280_pressure;Samples;Min_cycle;Max_cycle;Signal;HPM_P1;HPM_P2
2021/08/02 03:33:15;;;;;;;5.17;3.00;;;;;;;20.53;56.75;98566.16;7122140;23;20246;-82
2021/08/02 03:36:37;;;;;;;5.67;3.43;;;;;;;20.00;58.25;98558.44;6868975;28;20204;-82
2021/08/02 03:40:00;;;;;;;6.97;3.17;;;;;;;20.10;57.86;98553.00;6870769;28;20229;-82
2021/08/02 03:43:22;;;;;;;5.93;3.33;;;;;;;20.46;56.66;98549.19;6870003;28;20213;-82
2021/08/02 03:46:44;;;;;;;3.57;3.00;;;;;;;20.50;56.75;98569.44;6872476;28;20213;-82
2021/08/02 03:50:08;;;;;;;4.50;3.07;;;;;;;20.33;57.23;98572.47;6872438;28;20212;-82
2021/08/02 03:53:41;;;;;;;8.33;3.37;;;;;;;19.85;59.27;98578.38;6872965;28;20234;-82
2021/08/02 03:57:03;;;;;;;4.03;3.33;;;;;;;20.09;59.15;98565.03;6872637;28;20208;-82
2021/08/02 04:00:25;;;;;;;4.17;3.40;;;;;;;20.23;58.88;98571.63;6871010;28;20233;-83
2021/08/02 04:03:46;;;;;;;7.53;3.63;;;;;;;20.14;58.78;98589.69;6871224;28;20205;-82
2021/08/02 04:07:09;;;;;;;4.60;3.40;;;;;;;20.45;58.50;98588.63;6869912;28;20205;-82
2021/08/02 04:10:31;;;;;;;3.73;3.30;;;;;;;20.59;58.47;98589.72;6854999;28;20232;-82
2021/08/02 04:13:52;;;;;;;5.83;3.20;;;;;;;20.62;58.31;98598.22;6845187;28;20215;-82
2021/08/02 04:17:14;;;;;;;5.93;3.50;;;;;;;19.78;59.96;98577.81;6845753;29;20221;-82
2021/08/02 04:20:36;;;;;;;5.07;3.47;;;;;;;19.96;59.75;98587.44;6844892;28;20295;-82
2021/08/02 04:23:59;;;;;;;5.33;3.67;;;;;;;20.46;59.08;98603.97;6847144;28;20202;-82
2021/08/02 04:27:20;;;;;;;5.33;3.67;;;;;;;20.66;58.05;98598.47;6899288;28;20216;-86
2021/08/02 04:30:42;;;;;;;3.77;3.13;;;;;;;20.73;57.86;98612.72;6881035;28;20229;-82
2021/08/02 04:34:03;;;;;;;4.03;3.33;;;;;;;20.47;58.06;98603.69;6863379;28;20205;-82
2021/08/02 04:37:25;;;;;;;3.63;3.33;;;;;;;20.38;58.43;98621.75;6870179;28;20208;-82
2021/08/02 04:40:48;;;;;;;7.63;3.63;;;;;;;20.44;58.82;98628.88;6869399;28;20245;-82
2021/08/02 04:44:10;;;;;;;10.60;3.80;;;;;;;20.47;58.89;98635.75;6868546;28;20217;-82
2021/08/02 04:47:31;;;;;;;6.93;3.80;;;;;;;20.12;59.61;98635.66;6870000;28;20620;-82
2021/08/02 04:50:53;;;;;;;5.67;3.60;;;;;;;20.06;59.61;98590.19;6862339;28;20237;-82
2021/08/02 04:54:14;;;;;;;5.60;3.63;;;;;;;20.40;59.84;98632.44;6867790;28;20217;-82
2021/08/02 04:57:38;;;;;;;5.30;3.50;;;;;;;20.38;59.25;98575.19;6868919;28;20205;-82
2021/08/02 05:00:59;;;;;;;4.43;3.20;;;;;;;20.46;59.49;98603.97;6867592;28;20232;-82
2021/08/02 05:04:21;;;;;;;3.90;3.53;;;;;;;20.15;60.66;98638.69;6869821;28;20222;-82
2021/08/02 05:07:42;;;;;;;4.80;3.60;;;;;;;20.48;60.30;98626.41;6857915;28;20212;-81
2021/08/02 05:11:04;;;;;;;6.77;3.60;;;;;;;20.59;59.76;98619.84;6868783;28;20223;-81
2021/08/02 05:14:27;;;;;;;4.20;3.30;;;;;;;20.89;59.01;98619.88;6865869;28;20198;-82
2021/08/02 05:17:49;;;;;;;3.87;3.30;;;;;;;20.89;57.90;98598.78;6866012;28;20218;-82
2021/08/02 05:21:10;;;;;;;4.20;3.13;;;;;;;21.17;57.39;98631.91;6862193;28;20237;-82
2021/08/02 05:24:32;;;;;;;5.33;3.07;;;;;;;21.19;57.87;98626.94;6861334;28;20225;-82
2021/08/02 05:27:54;;;;;;;3.97;3.30;;;;;;;21.20;57.87;98623.09;6835792;28;20204;-82
2021/08/02 05:31:17;;;;;;;3.87;3.43;;;;;;;21.24;57.68;98635.16;6861172;28;20241;-82
2021/08/02 05:34:40;;;;;;;5.50;3.30;;;;;;;21.43;56.71;98627.97;6862161;28;20209;-83
2021/08/02 05:38:02;;;;;;;3.30;3.00;;;;;;;21.29;56.77;98623.34;6841940;28;20208;-82
2021/08/02 05:41:23;;;;;;;3.47;2.83;;;;;;;21.08;57.92;98641.78;6858500;28;20260;-81
2021/08/02 05:44:45;;;;;;;3.63;2.80;;;;;;;21.30;56.91;98608.56;6861126;28;20203;-81
2021/08/02 05:48:08;;;;;;;3.93;2.80;;;;;;;21.48;57.17;98625.22;6859846;28;20585;-81
2021/08/02 05:51:30;;;;;;;4.43;2.73;;;;;;;21.50;54.29;98635.94;6860732;28;20705;-81
2021/08/02 05:54:51;;;;;;;3.53;2.80;;;;;;;21.29;54.20;98634.34;6861877;28;20215;-81
2021/08/02 05:58:13;;;;;;;3.20;2.90;;;;;;;21.38;55.38;98646.38;6837662;28;20681;-81
2021/08/02 06:01:34;;;;;;;4.70;2.90;;;;;;;21.58;56.09;98641.66;6841250;28;20230;-81
2021/08/02 06:04:57;;;;;;;4.13;2.73;;;;;;;21.48;57.22;98649.13;6852632;28;20205;-81
2021/08/02 06:08:19;;;;;;;4.87;3.60;;;;;;;21.31;57.80;98654.09;6867041;28;20205;-81
2021/08/02 06:11:41;;;;;;;3.93;3.30;;;;;;;21.44;57.66;98651.59;6867568;28;20232;-81
2021/08/02 06:15:02;;;;;;;4.27;3.47;;;;;;;21.38;58.18;98662.84;6867853;28;20240;-81
2021/08/02 06:18:24;;;;;;;5.70;3.50;;;;;;;20.80;59.19;98637.94;6865378;28;20212;-81
2021/08/02 06:21:47;;;;;;;6.07;3.10;;;;;;;21.60;57.58;98658.66;6870212;28;20225;-81
2021/08/02 06:25:09;;;;;;;5.87;3.17;;;;;;;21.81;57.09;98660.28;6868579;28;20224;-81
2021/08/02 06:28:30;;;;;;;4.50;3.10;;;;;;;21.70;56.18;98655.91;6869345;28;20209;-81
2021/08/02 06:31:52;;;;;;;4.13;2.70;;;;;;;21.86;55.11;98667.66;6867352;28;20248;-81
2021/08/02 06:35:13;;;;;;;7.90;3.40;;;;;;;22.13;54.47;98665.34;6866616;28;20230;-81
2021/08/02 06:38:37;;;;;;;4.57;2.57;;;;;;;21.44;54.36;98678.19;6866048;28;20203;-81
2021/08/02 06:41:59;;;;;;;5.53;3.23;;;;;;;21.42;54.73;98672.19;6866234;28;20233;-81
2021/08/02 06:45:20;;;;;;;7.13;2.80;;;;;;;22.03;53.58;98671.72;6866406;28;20216;-81
2021/08/02 06:48:42;;;;;;;5.03;2.90;;;;;;;22.11;53.64;98681.28;6865846;28;20214;-81
2021/08/02 06:52:04;;;;;;;3.37;2.80;;;;;;;22.36;52.70;98672.91;6867451;28;20231;-81
2021/08/02 06:55:27;;;;;;;6.60;3.17;;;;;;;22.53;51.83;98665.16;6870603;28;20197;-81
2021/08/02 06:58:49;;;;;;;5.50;3.40;;;;;;;22.50;52.05;98676.69;6858565;28;20217;-81
2021/08/02 07:02:10;;;;;;;3.23;2.70;;;;;;;22.37;51.99;98672.59;6861447;28;20734;-81
2021/08/02 07:05:32;;;;;;;3.20;2.93;;;;;;;22.33;52.20;98678.97;6870617;28;20205;-81
2021/08/02 07:08:56;;;;;;;4.07;2.80;;;;;;;22.54;51.92;98684.06;6868880;28;20215;-81
2021/08/02 07:12:19;;;;;;;2.60;2.23;;;;;;;22.79;51.82;98683.91;6869613;28;20236;-81
2021/08/02 07:15:42;;;;;;;4.10;2.80;;;;;;;22.51;52.62;98672.84;6869644;28;20225;-81
2021/08/02 07:19:04;;;;;;;3.20;2.60;;;;;;;22.73;51.28;98663.03;6868193;28;20230;-81
2021/08/02 07:22:25;;;;;;;7.67;2.83;;;;;;;22.87;50.15;98682.47;6866562;28;20237;-81
2021/08/02 07:25:47;;;;;;;3.50;2.37;;;;;;;22.84;50.57;98652.81;6867938;28;20206;-81
2021/08/02 07:29:10;;;;;;;5.23;3.07;;;;;;;22.97;51.51;98683.22;6865837;28;20210;-81
2021/08/02 07:32:32;;;;;;;3.93;2.67;;;;;;;23.07;51.11;98683.13;6866528;28;20238;-81
2021/08/02 07:35:53;;;;;;;4.97;3.10;;;;;;;22.87;51.61;98669.56;6868676;28;20232;-81
2021/08/02 07:39:15;;;;;;;3.80;2.63;;;;;;;22.42;52.27;98671.78;6867420;28;20385;-81
2021/08/02 07:42:36;;;;;;;3.80;2.57;;;;;;;23.12;50.98;98679.53;6868523;28;20242;-82
2021/08/02 07:45:59;;;;;;;2.80;2.60;;;;;;;23.23;51.05;98679.16;6864543;28;20238;-81
2021/08/02 07:49:21;;;;;;;3.10;2.70;;;;;;;23.34;50.87;98674.38;6860698;28;20205;-81
2021/08/02 07:52:43;;;;;;;3.67;2.43;;;;;;;23.49;51.05;98676.97;6865243;28;20738;-81
2021/08/02 07:56:05;;;;;;;3.43;2.60;;;;;;;23.66;49.92;98689.16;6845811;28;20204;-82
2021/08/02 07:59:26;;;;;;;2.93;2.50;;;;;;;23.35;49.85;98648.50;6867060;28;20243;-83
2021/08/02 08:02:49;;;;;;;3.10;2.33;;;;;;;23.96;48.99;98685.28;6870015;28;20590;-83
2021/08/02 08:06:11;;;;;;;6.47;3.37;;;;;;;23.94;48.86;98670.97;6867783;28;20288;-84
2021/08/02 08:09:33;;;;;;;6.17;3.33;;;;;;;24.00;48.14;98694.59;6866677;28;20209;-84
2021/08/02 08:12:56;;;;;;;3.73;2.60;;;;;;;24.13;47.62;98656.13;6867206;28;20259;-81
2021/08/02 08:16:17;;;;;;;4.97;2.87;;;;;;;24.34;48.52;98685.06;6865519;28;20209;-82
2021/08/02 08:19:40;;;;;;;5.50;3.00;;;;;;;24.19;47.00;98678.94;6867280;28;20225;-81
2021/08/02 08:23:02;;;;;;;3.53;2.30;;;;;;;24.86;46.42;98678.50;6840583;28;20223;-83
2021/08/02 08:26:23;;;;;;;4.13;2.37;;;;;;;25.07;45.48;98671.56;6840856;29;20711;-81
2021/08/02 08:29:45;;;;;;;3.33;2.47;;;;;;;25.17;45.43;98660.31;6841162;28;20207;-82
2021/08/02 08:33:07;;;;;;;4.50;2.40;;;;;;;24.91;46.11;98650.84;6867575;28;20235;-81
2021/08/02 08:36:31;;;;;;;7.13;2.30;;;;;;;25.03;44.38;98685.13;6869416;28;20205;-81
2021/08/02 08:39:52;;;;;;;2.23;2.00;;;;;;;25.43;43.71;98681.69;6868881;28;20239;-81
2021/08/02 08:43:16;;;;;;;1.87;1.73;;;;;;;26.16;42.76;98668.66;6869211;28;20263;-81
2021/08/02 08:46:38;;;;;;;4.53;2.30;;;;;;;25.91;39.89;98674.72;6868795;28;20220;-81
2021/08/02 08:50:00;;;;;;;2.63;1.90;;;;;;;25.84;40.90;98676.22;6867541;28;20548;-81
2021/08/02 08:53:23;;;;;;;2.17;2.00;;;;;;;26.47;42.05;98644.72;6869250;28;20227;-81
2021/08/02 08:56:45;;;;;;;2.43;1.80;;;;;;;26.91;39.70;98669.72;6868406;28;20205;-81
2021/08/02 09:00:18;;;;;;;2.03;1.73;;;;;;;27.10;39.38;98659.28;6868032;28;20247;-81
2021/08/02 09:03:51;;;;;;;1.80;1.70;;;;;;;27.06;39.74;98668.50;6868494;28;20197;-81
2021/08/02 09:07:13;;;;;;;2.13;1.80;;;;;;;26.25;39.53;98663.22;6870184;28;20200;-82
2021/08/02 09:10:37;;;;;;;4.40;2.00;;;;;;;26.43;39.71;98613.28;6868493;28;20235;-82
2021/08/02 09:14:09;;;;;;;6.23;2.80;;;;;;;27.85;37.25;98642.63;6868619;28;20212;-83
2021/08/02 09:17:33;;;;;;;10.73;3.17;;;;;;;28.25;37.80;98655.28;6869401;28;20283;-81
2021/08/02 09:21:01;;;;;;;2.33;1.90;;;;;;;28.28;38.33;98646.31;6868516;28;20228;-81
2021/08/02 09:24:30;;;;;;;2.63;1.80;;;;;;;27.94;37.63;98655.38;6858698;28;20209;-81
2021/08/02 09:27:53;;;;;;;4.17;1.50;;;;;;;27.72;36.45;98660.94;6869788;28;20576;-81
2021/08/02 09:31:15;;;;;;;1.70;1.50;;;;;;;26.17;37.25;98650.94;6867858;28;20625;-81
2021/08/02 09:34:45;;;;;;;2.57;1.63;;;;;;;26.94;37.90;98648.88;6868519;28;20205;-81
2021/08/02 09:38:08;;;;;;;4.17;1.90;;;;;;;27.05;37.66;98644.72;6845679;29;20199;-81
2021/08/02 09:41:30;;;;;;;3.40;2.17;;;;;;;26.77;39.23;98632.19;6857398;28;20227;-80
2021/08/02 09:45:01;;;;;;;1.90;1.80;;;;;;;27.14;38.97;98643.66;6870203;28;20668;-80
2021/08/02 09:48:35;;;;;;;3.10;1.80;;;;;;;26.24;38.57;98636.72;6871482;28;20285;-80
2021/08/02 09:51:56;;;;;;;2.70;1.90;;;;;;;26.19;39.07;98631.31;6872611;28;20248;-81
2021/08/02 09:55:18;;;;;;;4.83;2.30;;;;;;;27.76;38.12;98627.88;6872170;28;20213;-80
2021/08/02 09:58:43;;;;;;;1.77;1.50;;;;;;;28.20;36.83;98620.19;6872057;28;20205;-81
2021/08/02 10:02:06;;;;;;;4.37;2.03;;;;;;;29.14;34.52;98606.38;6871650;28;20233;-80
2021/08/02 10:05:27;;;;;;;3.47;1.63;;;;;;;28.99;34.80;98604.94;6871591;28;20217;-81
2021/08/02 10:08:49;;;;;;;2.23;1.90;;;;;;;29.05;34.16;98627.78;6871556;28;20214;-81
2021/08/02 10:12:11;;;;;;;6.70;3.10;;;;;;;28.75;34.85;98625.97;6871322;28;20234;-81
2021/08/02 10:15:33;;;;;;;4.30;2.00;;;;;;;28.05;35.45;98619.84;6871585;28;20708;-80
2021/08/02 10:19:03;;;;;;;1.87;1.73;;;;;;;27.53;36.17;98627.13;6859305;28;20212;-80
2021/08/02 10:22:25;;;;;;;6.80;1.80;;;;;;;28.04;35.38;98616.28;6872078;28;20846;-81
2021/08/02 10:25:46;;;;;;;3.10;2.07;;;;;;;28.78;35.81;98603.16;6846021;29;20215;-80
2021/08/02 10:29:09;;;;;;;2.03;1.70;;;;;;;28.80;37.17;98596.13;6844387;29;20213;-81
2021/08/02 10:32:32;;;;;;;3.20;1.80;;;;;;;28.81;36.14;98589.41;6844649;29;20232;-81
2021/08/02 10:35:55;;;;;;;6.03;1.80;;;;;;;29.11;35.83;98579.25;6850874;28;20336;-81
2021/08/02 10:39:23;;;;;;;2.60;1.80;;;;;;;28.41;35.89;98567.72;6861918;28;20212;-81
2021/08/02 10:42:49;;;;;;;2.33;1.80;;;;;;;28.21;36.96;98588.59;6883611;23;20265;-81
2021/08/02 10:46:21;;;;;;;2.17;2.07;;;;;;;27.49;37.78;98594.88;6865415;28;20210;-81
2021/08/02 10:49:49;;;;;;;2.57;1.80;;;;;;;25.39;43.72;98627.38;6849198;28;20215;-81
2021/08/02 10:53:13;;;;;;;3.03;2.20;;;;;;;23.79;50.84;98602.31;6847932;29;20327;-81
2021/08/02 10:56:35;;;;;;;5.87;2.50;;;;;;;22.98;54.00;98642.78;6849159;29;20189;-81
2021/08/02 10:59:58;;;;;;;6.00;3.20;;;;;;;21.87;59.18;98639.09;6848093;29;20222;-82
2021/08/02 11:03:32;;;;;;;4.53;2.80;;;;;;;22.47;57.70;98656.09;7003746;23;20237;-81
2021/08/02 11:06:55;;;;;;;6.27;3.40;;;;;;;22.61;60.02;98653.53;6904352;28;20199;-81
2021/08/02 11:10:18;;;;;;;7.40;3.03;;;;;;;22.90;56.20;98663.47;6901565;28;20751;-81
2021/08/02 11:13:39;;;;;;;4.53;2.57;;;;;;;21.88;57.54;98662.69;6877135;28;20212;-81
2021/08/02 11:17:01;;;;;;;5.57;2.70;;;;;;;21.48;58.58;98660.91;6876236;28;20209;-81
2021/08/02 11:20:24;;;;;;;3.03;2.60;;;;;;;21.37;58.59;98637.31;6876426;28;20229;-81
2021/08/02 11:23:45;;;;;;;3.77;2.73;;;;;;;21.25;59.79;98663.44;6885333;28;20205;-81
2021/08/02 11:27:10;;;;;;;2.80;2.60;;;;;;;21.23;59.31;98612.69;6868751;28;20199;-81
2021/08/02 11:30:32;;;;;;;2.00;1.90;;;;;;;22.43;57.72;98668.75;6863152;28;20208;-81
2021/08/02 11:33:53;;;;;;;2.67;1.60;;;;;;;22.61;53.00;98667.28;6870587;28;20205;-80
2021/08/02 11:37:17;;;;;;;1.97;1.80;;;;;;;23.88;50.17;98667.47;6869452;28;20214;-80
2021/08/02 11:40:39;;;;;;;2.13;2.00;;;;;;;24.53;53.99;98672.09;6868727;28;20234;-80
2021/08/02 11:44:02;;;;;;;2.73;2.40;;;;;;;24.57;52.29;98686.13;6868753;28;20554;-80
2021/08/02 11:47:25;;;;;;;3.50;2.20;;;;;;;23.90;52.16;98670.75;6868351;28;20218;-81
2021/08/02 11:50:47;;;;;;;3.37;2.20;;;;;;;23.46;54.03;98652.78;6868008;28;20233;-80
2021/08/02 11:54:18;;;;;;;2.30;1.90;;;;;;;23.27;54.62;98660.13;6867854;28;20213;-79
2021/08/02 11:57:40;;;;;;;1.73;1.63;;;;;;;23.17;52.75;98651.97;6869549;28;20321;-80
2021/08/02 12:01:03;;;;;;;2.00;1.90;;;;;;;23.44;53.33;98653.09;6848994;28;20234;-81
2021/08/02 12:04:25;;;;;;;1.67;1.57;;;;;;;24.35;52.19;98639.84;6869225;28;20220;-81
2021/08/02 12:07:47;;;;;;;1.90;1.50;;;;;;;24.90;45.27;98643.69;6867400;28;20224;-81
2021/08/02 12:11:08;;;;;;;2.07;1.53;;;;;;;24.69;47.63;98628.59;6867407;28;20232;-81
2021/08/02 12:14:31;;;;;;;3.07;1.77;;;;;;;23.79;48.65;98630.63;6863540;28;20207;-80
2021/08/02 12:17:56;;;;;;;2.13;1.80;;;;;;;23.83;50.55;98644.66;6867402;28;20200;-81
2021/08/02 12:21:22;;;;;;;2.50;1.60;;;;;;;25.35;46.13;98645.69;6857335;28;20328;-80
2021/08/02 12:24:54;;;;;;;2.00;1.80;;;;;;;24.61;47.11;98648.59;6842230;28;20223;-81
2021/08/02 12:28:16;;;;;;;2.20;1.70;;;;;;;25.08;51.45;98646.41;6851437;28;20219;-81
2021/08/02 12:31:40;;;;;;;2.00;1.90;;;;;;;24.00;51.02;98656.84;6842499;28;20221;-82
2021/08/02 12:35:03;;;;;;;1.87;1.77;;;;;;;23.65;55.17;98635.22;6851728;28;20206;-81
2021/08/02 12:38:25;;;;;;;5.40;2.00;;;;;;;24.12;52.83;98651.72;6853979;28;20857;-80
2021/08/02 12:41:47;;;;;;;2.47;1.90;;;;;;;23.23;53.01;98629.63;6849073;28;20232;-81
2021/08/02 12:45:10;;;;;;;3.63;1.90;;;;;;;23.55;53.13;98637.28;6840942;29;20296;-81
2021/08/02 12:48:32;;;;;;;1.73;1.63;;;;;;;22.94;52.85;98630.72;6841297;29;20214;-81
2021/08/02 12:51:55;;;;;;;2.37;2.17;;;;;;;23.36;52.62;98628.16;6841818;29;20222;-81
2021/08/02 12:55:17;;;;;;;3.20;2.07;;;;;;;24.29;53.49;98618.97;6841847;29;20217;-80
2021/08/02 12:58:38;;;;;;;2.03;1.80;;;;;;;24.86;49.40;98570.94;6838580;29;20227;-80
2021/08/02 13:02:01;;;;;;;3.10;2.10;;;;;;;24.39;53.18;98627.09;6837506;29;20240;-80
2021/08/02 13:05:23;;;;;;;2.30;2.10;;;;;;;24.71;51.04;98616.16;6838568;29;20580;-80
2021/08/02 13:08:46;;;;;;;2.07;1.83;;;;;;;25.08;51.20;98613.28;6839456;28;20216;-81
2021/08/02 13:12:08;;;;;;;4.03;2.17;;;;;;;25.61;49.23;98599.91;6857449;28;20236;-80
2021/08/02 13:15:30;;;;;;;2.53;1.70;;;;;;;26.03;46.85;98608.72;6865234;28;20213;-81
2021/08/02 13:18:54;;;;;;;2.13;1.93;;;;;;;26.24;44.68;98612.63;6864418;28;20231;-81
2021/08/02 13:22:19;;;;;;;1.87;1.77;;;;;;;26.47;43.39;98596.91;6863786;28;20240;-80
2021/08/02 13:29:21;;;;;;;1.80;1.70;;;;;;;25.81;47.29;98602.22;6864027;28;20576;-80
2021/08/02 13:32:43;;;;;;;2.57;1.70;;;;;;;26.21;44.21;98599.47;6863024;28;20268;-81
2021/08/02 13:36:05;;;;;;;1.97;1.60;;;;;;;25.61;44.35;98597.16;6863036;28;20213;-80
2021/08/02 13:39:29;;;;;;;1.87;1.50;;;;;;;24.90;45.21;98566.47;6862253;28;20212;-81
2021/08/02 13:42:52;;;;;;;2.07;1.93;;;;;;;25.49;47.28;98581.06;6841287;28;20245;-81
2021/08/02 13:46:14;;;;;;;2.77;2.00;;;;;;;25.53;46.22;98606.94;6853530;28;20210;-81
2021/08/02 13:49:37;;;;;;;2.93;1.93;;;;;;;25.29;49.41;98595.28;6862215;28;20218;-81
2021/08/02 13:52:59;;;;;;;2.70;2.00;;;;;;;25.79;49.16;98610.81;6858456;28;20232;-81
2021/08/02 13:56:21;;;;;;;2.93;2.23;;;;;;;25.56;49.39;98605.53;6841063;28;20207;-81
2021/08/02 13:59:44;;;;;;;2.03;1.80;;;;;;;24.86;48.22;98563.50;6850939;28;20210;-81
2021/08/02 14:03:06;;;;;;;2.30;2.00;;;;;;;25.13;48.88;98601.38;6852021;28;20229;-81
2021/08/02 14:06:28;;;;;;;1.77;1.67;;;;;;;24.60;50.35;98592.63;6859839;28;20640;-81
2021/08/02 14:09:49;;;;;;;2.03;1.70;;;;;;;24.52;48.95;98534.56;6862100;28;20240;-81
2021/08/02 14:13:14;;;;;;;2.97;1.80;;;;;;;24.70;46.42;98566.81;6861396;28;20231;-81
2021/08/02 14:16:37;;;;;;;2.70;2.07;;;;;;;24.85;47.30;98578.41;6836675;29;20202;-81
2021/08/02 14:19:59;;;;;;;2.87;1.80;;;;;;;25.28;46.28;98568.81;6837237;28;20581;-81
2021/08/02 14:23:20;;;;;;;2.43;1.80;;;;;;;25.59;46.94;98549.69;6855936;28;20238;-81
2021/08/02 14:26:42;;;;;;;1.77;1.67;;;;;;;24.99;44.93;98548.91;6863046;28;20612;-81
2021/08/02 14:30:06;;;;;;;4.33;1.93;;;;;;;25.32;46.09;98557.97;6840331;29;20215;-81
2021/08/02 14:33:29;;;;;;;2.03;1.80;;;;;;;25.22;45.71;98566.41;6861958;28;20231;-81
2021/08/02 14:36:54;;;;;;;5.33;2.20;;;;;;;24.99;45.79;98521.31;6868264;28;20216;-81
2021/08/02 14:40:16;;;;;;;1.80;1.70;;;;;;;25.63;44.30;98578.31;6867149;28;20246;-81
2021/08/02 14:43:39;;;;;;;1.70;1.60;;;;;;;25.09;45.13;98581.00;6868453;28;20228;-81
2021/08/02 14:47:00;;;;;;;2.33;1.73;;;;;;;25.16;44.60;98581.44;6867501;28;20213;-81
2021/08/02 14:50:30;;;;;;;3.17;2.00;;;;;;;25.47;44.67;98579.72;6857552;28;20760;-80
2021/08/02 14:53:52;;;;;;;2.23;1.70;;;;;;;25.01;44.57;98581.72;6851803;28;20207;-81
2021/08/02 14:57:14;;;;;;;2.00;1.83;;;;;;;24.67;44.28;98575.69;6851500;28;20215;-82
2021/08/02 15:00:36;;;;;;;1.90;1.70;;;;;;;24.32;45.54;98519.19;6859975;28;20221;-82
2021/08/02 15:03:58;;;;;;;3.17;1.90;;;;;;;24.43;45.85;98572.22;6866783;28;20215;-81
2021/08/02 15:07:22;;;;;;;2.90;1.80;;;;;;;25.13;44.52;98554.47;6862136;28;20219;-81
2021/08/02 15:10:44;;;;;;;2.23;2.03;;;;;;;24.98;46.18;98572.09;6867482;28;20239;-82
2021/08/02 15:14:05;;;;;;;4.00;2.10;;;;;;;25.12;46.51;98567.41;6867518;28;20581;-83
2021/08/02 15:17:29;;;;;;;2.50;2.07;;;;;;;25.17;46.98;98541.66;6868096;28;20664;-81
2021/08/02 15:20:52;;;;;;;2.30;2.10;;;;;;;25.45;45.82;98557.97;6866041;28;20231;-81
2021/08/02 15:24:16;;;;;;;3.00;2.00;;;;;;;24.99;46.43;98551.66;6868281;28;20212;-81
2021/08/02 15:27:38;;;;;;;2.53;2.00;;;;;;;25.41;45.26;98558.88;6868199;28;20203;-81
2021/08/02 15:31:00;;;;;;;2.30;1.77;;;;;;;25.23;44.61;98560.59;6883941;23;20231;-85
2021/08/02 15:34:24;;;;;;;3.87;2.00;;;;;;;25.25;44.83;98554.81;6887790;28;20623;-87
2021/08/02 15:37:45;;;;;;;5.70;2.00;;;;;;;25.32;42.76;98547.72;6878743;28;20282;-86
2021/08/02 15:41:12;;;;;;;2.03;1.43;;;;;;;25.31;42.64;98564.63;6883842;28;20237;-88
2021/08/02 15:44:34;;;;;;;2.93;1.80;;;;;;;25.85;41.92;98568.19;6877454;28;20209;-86
2021/08/02 15:47:57;;;;;;;4.57;1.90;;;;;;;26.12;42.68;98546.03;6891062;28;20201;-86
2021/08/02 15:51:21;;;;;;;3.17;2.50;;;;;;;26.23;43.71;98560.44;6869833;28;20594;-86
2021/08/02 15:54:43;;;;;;;2.53;1.93;;;;;;;25.42;43.73;98552.25;6890485;28;20280;-86
2021/08/02 15:58:09;;;;;;;1.60;1.50;;;;;;;25.64;41.39;98568.91;6890925;28;20214;-85
2021/08/02 16:01:34;;;;;;;2.17;1.77;;;;;;;26.18;40.92;98557.81;6867347;28;20231;-92
2021/08/02 16:05:00;;;;;;;1.77;1.67;;;;;;;25.95;43.05;98572.69;6888628;28;20205;-87
2021/08/02 16:08:27;;;;;;;2.03;1.83;;;;;;;26.15;41.63;98572.22;6883640;28;20228;-87
2021/08/02 16:11:52;;;;;;;1.50;1.43;;;;;;;26.48;41.24;98563.41;6882789;28;20221;-86
2021/08/02 16:15:17;;;;;;;2.27;2.07;;;;;;;26.40;41.00;98569.69;6891109;28;20570;-86
2021/08/02 16:18:38;;;;;;;2.80;1.90;;;;;;;25.44;42.64;98564.63;6890460;28;20214;-86
2021/08/02 16:22:00;;;;;;;4.77;4.37;;;;;;;25.99;42.56;98560.72;6877503;28;20232;-88
2021/08/02 16:25:24;;;;;;;2.33;2.13;;;;;;;26.16;42.22;98569.16;6863990;28;20220;-85
2021/08/02 16:28:47;;;;;;;2.87;2.20;;;;;;;26.19;41.48;98563.00;6861786;28;20202;-86
2021/08/02 16:32:10;;;;;;;2.33;2.13;;;;;;;25.82;42.57;98576.25;6862429;28;20234;-87
2021/08/02 16:35:32;;;;;;;3.17;2.87;;;;;;;25.93;41.07;98526.03;6862837;28;20579;-86
2021/08/02 16:38:53;;;;;;;3.20;1.77;;;;;;;26.51;39.90;98578.56;6863230;28;20671;-87
2021/08/02 16:42:15;;;;;;;2.13;1.87;;;;;;;26.34;40.77;98573.72;6877815;28;20231;-86
2021/08/02 16:45:37;;;;;;;1.97;1.87;;;;;;;26.09;41.98;98582.59;6891122;28;20209;-86
2021/08/02 16:48:59;;;;;;;2.27;2.07;;;;;;;26.52;41.94;98563.59;6890538;28;20241;-85
2021/08/02 16:52:22;;;;;;;3.37;2.20;;;;;;;26.67;41.98;98574.31;6876969;28;20717;-84
2021/08/02 16:55:44;;;;;;;2.40;1.77;;;;;;;24.97;44.90;98598.06;6861029;28;20219;-86
2021/08/02 16:59:05;;;;;;;2.77;1.73;;;;;;;24.98;44.92;98579.56;6860267;28;20217;-87
2021/08/02 17:02:27;;;;;;;3.50;2.00;;;;;;;25.32;44.51;98593.84;6866823;28;20236;-85
2021/08/02 17:05:50;;;;;;;5.67;1.87;;;;;;;25.25;43.68;98599.75;6866593;28;20226;-87
2021/08/02 17:09:12;;;;;;;1.70;1.60;;;;;;;25.39;42.70;98577.69;6864713;28;20211;-84
2021/08/02 17:12:34;;;;;;;1.53;1.43;;;;;;;24.50;43.25;98590.00;6872871;28;20239;-85
2021/08/02 17:15:55;;;;;;;1.70;1.60;;;;;;;24.93;42.80;98588.75;6869621;28;20214;-87
2021/08/02 17:19:17;;;;;;;2.20;1.60;;;;;;;24.92;42.74;98617.47;6868118;28;20677;-86
2021/08/02 17:22:40;;;;;;;2.87;1.50;;;;;;;25.36;42.69;98609.50;6865225;28;20315;-85
2021/08/02 17:26:02;;;;;;;1.90;1.80;;;;;;;25.26;42.99;98619.91;6866189;28;20205;-83
2021/08/02 17:29:25;;;;;;;3.00;2.70;;;;;;;25.12;43.48;98625.38;6867659;28;20234;-83
2021/08/02 17:32:47;;;;;;;2.33;1.70;;;;;;;24.41;44.05;98630.38;6880408;28;20726;-84
2021/08/02 17:36:08;;;;;;;2.07;1.80;;;;;;;24.90;43.86;98636.22;6885128;28;20217;-83
2021/08/02 17:39:31;;;;;;;1.80;1.70;;;;;;;24.48;43.74;98638.28;6890465;28;20211;-85
2021/08/02 17:42:53;;;;;;;2.23;1.90;;;;;;;24.43;44.89;98641.91;6894365;28;20235;-86
2021/08/02 17:46:15;;;;;;;2.97;1.80;;;;;;;24.45;44.59;98641.63;6896350;28;20212;-85
2021/08/02 17:49:36;;;;;;;2.10;2.00;;;;;;;24.62;44.91;98628.16;6882295;28;20201;-86
2021/08/02 17:52:58;;;;;;;2.67;1.60;;;;;;;24.80;44.86;98650.22;6870030;28;20229;-84
2021/08/02 17:56:22;;;;;;;2.47;1.90;;;;;;;24.89;44.59;98637.34;6890183;28;20546;-85
2021/08/02 17:59:44;;;;;;;1.50;1.37;;;;;;;24.56;43.98;98641.19;6893644;28;20216;-83
2021/08/02 18:03:05;;;;;;;1.63;1.53;;;;;;;24.54;44.27;98654.44;6880859;28;20240;-84
2021/08/02 18:06:29;;;;;;;1.50;1.40;;;;;;;23.83;45.00;98647.41;6875592;28;20220;-85
2021/08/02 18:09:50;;;;;;;1.53;1.27;;;;;;;24.05;43.73;98655.97;6874609;28;20222;-83
2021/08/02 18:13:13;;;;;;;1.57;1.47;;;;;;;24.26;43.50;98655.38;6874919;28;20240;-83
2021/08/02 18:16:41;;;;;;;2.40;1.53;;;;;;;24.35;43.75;98664.66;6873014;28;20200;-85
2021/08/02 18:20:03;;;;;;;1.20;1.20;;;;;;;24.35;43.67;98667.41;6872426;28;20215;-83
2021/08/02 18:23:25;;;;;;;1.27;1.23;;;;;;;24.49;44.02;98670.25;6872806;28;20406;-84
2021/08/02 18:26:47;;;;;;;1.80;1.60;;;;;;;24.73;43.96;98668.25;6875040;28;20203;-83
2021/08/02 18:30:11;;;;;;;1.17;1.17;;;;;;;24.96;43.12;98670.88;6872190;28;20207;-83
2021/08/02 18:33:33;;;;;;;1.40;1.30;;;;;;;24.80;43.95;98655.72;6873704;28;20234;-83
2021/08/02 18:36:54;;;;;;;2.70;1.43;;;;;;;24.95;44.23;98669.25;6866863;28;20214;-85
2021/08/02 18:40:17;;;;;;;1.43;1.33;;;;;;;24.82;45.10;98671.94;6868392;28;20690;-85
2021/08/02 18:43:40;;;;;;;4.73;1.73;;;;;;;24.81;44.52;98679.41;6870795;28;20227;-84
2021/08/02 18:47:04;;;;;;;1.90;1.50;;;;;;;24.94;44.34;98664.84;6874781;28;20216;-84
2021/08/02 18:50:26;;;;;;;1.50;1.40;;;;;;;24.64;44.96;98675.53;6868710;28;20207;-84
2021/08/02 18:53:47;;;;;;;1.73;1.53;;;;;;;24.29;45.65;98676.84;6873138;28;20219;-83
2021/08/02 18:57:09;;;;;;;1.37;1.17;;;;;;;24.19;46.40;98674.22;6868511;28;20209;-85
2021/08/02 19:00:32;;;;;;;1.60;1.50;;;;;;;24.47;46.11;98689.81;6871378;28;20209;-84
2021/08/02 19:03:55;;;;;;;4.07;2.57;;;;;;;23.58;47.82;98698.06;6872483;28;20246;-83
2021/08/02 19:07:17;;;;;;;1.87;1.73;;;;;;;23.87;46.21;98687.00;6870964;28;20205;-85
2021/08/02 19:10:39;;;;;;;2.63;2.13;;;;;;;23.12;48.67;98690.53;6876540;28;20254;-83
2021/08/02 19:14:01;;;;;;;1.50;1.40;;;;;;;23.52;47.60;98690.16;6872926;28;20227;-84
2021/08/02 19:17:23;;;;;;;2.43;1.67;;;;;;;22.91;49.62;98705.53;6871919;28;20202;-83
2021/08/02 19:20:48;;;;;;;1.87;1.77;;;;;;;23.28;48.98;98697.53;6872886;28;20227;-85
2021/08/02 19:24:11;;;;;;;1.67;1.57;;;;;;;23.19;49.92;98696.53;6866568;28;20283;-85
2021/08/02 19:27:33;;;;;;;1.90;1.80;;;;;;;23.08;50.09;98706.75;6867857;28;20198;-84
2021/08/02 19:30:55;;;;;;;2.17;1.77;;;;;;;23.48;49.17;98717.44;6865611;28;20233;-84